sensor_id;sensor_type;location;lat;lon;timestamp;pressure;altitude;pressure_sealevel;temperature;humidity
30421;BME280;17218;54.070;10.012;2022-12-08T00:00:07;100380.03;;;1.27;100.00
30421;BME280;17218;54.070;10.012;2022-12-08T00:02:33;100377.56;;;1.30;100.00
30421;BME280;17218;54.070;10.012;2022-12-08T00:05:00;100375.94;;;1.34;100.00
30421;BME280;17218;54.070;10.012;2022-12-08T00:07:44;100368.25;;;1.33;100.00
30421;BME280;17218;54.070;10.012;2022-12-08T00:10:28;100367.38;;;1.32;100.00
30421;BME280;17218;54.070;10.012;2022-12-08T00:12:54;100357.97;;;1.29;100.00
30421;BME280;17218;54.070;10.012;2022-12-08T00:15:22;100357.00;;;1.26;100.00
30421;BME280;17218;54.070;10.012;2022-12-08T00:17:49;100357.13;;;1.30;100.00
30421;BME280;17218;54.070;10.012;2022-12-08T00:20:16;100359.72;;;1.32;100.00
30421;BME280;17218;54.070;10.012;2022-12-08T00:22:42;100357.09;;;1.29;100.00
30421;BME280;17218;54.070;10.012;2022-12-08T00:25:09;100352.53;;;1.17;100.00
30421;BME280;17218;54.070;10.012;2022-12-08T00:27:36;100344.81;;;1.14;100.00
30421;BME280;17218;54.070;10.012;2022-12-08T00:30:03;100338.97;;;1.18;100.00
30421;BME280;17218;54.070;10.012;2022-12-08T00:32:31;100336.44;;;1.18;100.00
30421;BME280;17218;54.070;10.012;2022-12-08T00:34:57;100335.28;;;1.06;100.00
30421;BME280;17218;54.070;10.012;2022-12-08T00:37:24;100337.84;;;1.06;100.00
30421;BME280;17218;54.070;10.012;2022-12-08T00:39:50;100338.94;;;1.16;100.00
30421;BME280;17218;54.070;10.012;2022-12-08T00:42:17;100332.31;;;1.25;100.00
30421;BME280;17218;54.070;10.012;2022-12-08T00:44:44;100330.88;;;1.35;100.00
30421;BME280;17218;54.070;10.012;2022-12-08T00:47:12;100332.63;;;1.37;100.00
30421;BME280;17218;54.070;10.012;2022-12-08T00:49:40;100330.97;;;1.39;100.00
30421;BME280;17218;54.070;10.012;2022-12-08T00:52:07;100331.88;;;1.41;100.00
30421;BME280;17218;54.070;10.012;2022-12-08T00:54:34;100317.19;;;1.31;100.00
30421;BME280;17218;54.070;10.012;2022-12-08T00:57:01;100303.53;;;1.30;100.00
30421;BME280;17218;54.070;10.012;2022-12-08T00:59:27;100312.97;;;1.33;100.00
30421;BME280;17218;54.070;10.012;2022-12-08T01:01:54;100309.59;;;1.34;100.00
30421;BME280;17218;54.070;10.012;2022-12-08T01:04:21;100303.78;;;1.41;100.00
30421;BME280;17218;54.070;10.012;2022-12-08T01:06:49;100303.88;;;1.46;100.00
30421;BME280;17218;54.070;10.012;2022-12-08T01:09:16;100304.00;;;1.51;100.00
30421;BME280;17218;54.070;10.012;2022-12-08T01:11:43;100290.34;;;1.49;100.00
30421;BME280;17218;54.070;10.012;2022-12-08T01:14:11;100283.41;;;1.43;100.00
30421;BME280;17218;54.070;10.012;2022-12-08T01:16:37;100281.72;;;1.43;100.00
30421;BME280;17218;54.070;10.012;2022-12-08T01:19:05;100290.06;;;1.36;100.00
30421;BME280;17218;54.070;10.012;2022-12-08T01:21:32;100290.06;;;1.36;100.00
30421;BME280;17218;54.070;10.012;2022-12-08T01:24:00;100277.13;;;1.28;100.00
30421;BME280;17218;54.070;10.012;2022-12-08T01:26:27;100284.56;;;1.19;100.00
30421;BME280;17218;54.070;10.012;2022-12-08T01:28:54;100283.69;;;1.18;100.00
30421;BME280;17218;54.070;10.012;2022-12-08T01:31:21;100282.81;;;1.16;100.00
30421;BME280;17218;54.070;10.012;2022-12-08T01:33:48;100267.59;;;1.21;100.00
30421;BME280;17218;54.070;10.012;2022-12-08T01:36:19;100264.97;;;1.18;100.00
30421;BME280;17218;54.070;10.012;2022-12-08T01:38:46;100266.72;;;1.21;100.00
30421;BME280;17218;54.070;10.012;2022-12-08T01:41:15;100270.19;;;1.23;100.00
30421;BME280;17218;54.070;10.012;2022-12-08T01:43:49;100273.63;;;1.25;100.00
30421;BME280;17218;54.070;10.012;2022-12-08T01:46:19;100271.84;;;1.22;100.00
30421;BME280;17218;54.070;10.012;2022-12-08T01:48:46;100265.19;;;1.27;100.00
30421;BME280;17218;54.070;10.012;2022-12-08T01:51:13;100268.53;;;1.25;100.00
30421;BME280;17218;54.070;10.012;2022-12-08T01:53:39;100262.81;;;1.35;100.00
30421;BME280;17218;54.070;10.012;2022-12-08T01:56:10;100279.13;;;1.42;100.00
30421;BME280;17218;54.070;10.012;2022-12-08T01:58:42;100259.47;;;1.38;100.00
30421;BME280;17218;54.070;10.012;2022-12-08T02:01:11;100259.47;;;1.38;100.00
30421;BME280;17218;54.070;10.012;2022-12-08T02:03:41;100266.22;;;1.36;100.00
30421;BME280;17218;54.070;10.012;2022-12-08T02:06:10;100271.22;;;1.29;100.00
30421;BME280;17218;54.070;10.012;2022-12-08T02:08:39;100269.13;;;1.13;100.00
30421;BME280;17218;54.070;10.012;2022-12-08T02:11:08;100261.59;;;1.19;100.00
30421;BME280;17218;54.070;10.012;2022-12-08T02:13:35;100257.41;;;1.23;100.00
30421;BME280;17218;54.070;10.012;2022-12-08T02:16:09;100255.03;;;1.29;100.00
30421;BME280;17218;54.070;10.012;2022-12-08T02:18:48;100251.44;;;1.22;100.00
30421;BME280;17218;54.070;10.012;2022-12-08T02:21:24;100254.75;;;1.16;100.00
30421;BME280;17218;54.070;10.012;2022-12-08T02:24:00;100249.56;;;1.15;100.00
30421;BME280;17218;54.070;10.012;2022-12-08T02:27:18;100251.66;;;1.31;100.00
30421;BME280;17218;54.070;10.012;2022-12-08T02:36:03;100248.84;;;1.58;100.00
30421;BME280;17218;54.070;10.012;2022-12-08T02:38:43;100241.06;;;1.51;100.00
30421;BME280;17218;54.070;10.012;2022-12-08T02:41:19;100244.91;;;1.34;100.00
30421;BME280;17218;54.070;10.012;2022-12-08T02:43:53;100244.09;;;1.35;100.00
30421;BME280;17218;54.070;10.012;2022-12-08T02:46:24;100243.28;;;1.37;100.00
30421;BME280;17218;54.070;10.012;2022-12-08T02:48:53;100245.16;;;1.46;100.00
30421;BME280;17218;54.070;10.012;2022-12-08T02:51:22;100241.78;;;1.46;100.00
30421;BME280;17218;54.070;10.012;2022-12-08T02:53:49;100248.59;;;1.47;100.00
30421;BME280;17218;54.070;10.012;2022-12-08T02:56:33;100247.53;;;1.37;100.00
30421;BME280;17218;54.070;10.012;2022-12-08T02:59:24;100239.00;;;1.35;100.00
30421;BME280;17218;54.070;10.012;2022-12-08T03:04:54;100234.38;;;1.19;100.00
30421;BME280;17218;54.070;10.012;2022-12-08T03:07:29;100219.25;;;1.27;100.00
30421;BME280;17218;54.070;10.012;2022-12-08T03:10:00;100224.41;;;1.30;100.00
30421;BME280;17218;54.070;10.012;2022-12-08T03:12:30;100217.63;;;1.31;100.00
30421;BME280;17218;54.070;10.012;2022-12-08T03:15:05;100224.47;;;1.32;100.00
30421;BME280;17218;54.070;10.012;2022-12-08T03:17:33;100209.34;;;1.41;100.00
30421;BME280;17218;54.070;10.012;2022-12-08T03:20:07;100217.88;;;1.42;100.00
30421;BME280;17218;54.070;10.012;2022-12-08T03:22:37;100223.91;;;1.46;100.00
30421;BME280;17218;54.070;10.012;2022-12-08T03:25:06;100212.97;;;1.51;100.00
30421;BME280;17218;54.070;10.012;2022-12-08T03:27:33;100216.47;;;1.57;100.00
30421;BME280;17218;54.070;10.012;2022-12-08T03:30:00;100215.72;;;1.61;100.00
30421;BME280;17218;54.070;10.012;2022-12-08T03:32:30;100215.81;;;1.65;100.00
30421;BME280;17218;54.070;10.012;2022-12-08T03:35:00;100223.56;;;1.70;100.00
30421;BME280;17218;54.070;10.012;2022-12-08T03:37:29;100210.75;;;1.69;100.00
30421;BME280;17218;54.070;10.012;2022-12-08T03:39:57;100217.50;;;1.66;100.00
30421;BME280;17218;54.070;10.012;2022-12-08T03:42:23;100206.53;;;1.71;100.00
30421;BME280;17218;54.070;10.012;2022-12-08T03:44:50;100214.31;;;1.75;100.00
30421;BME280;17218;54.070;10.012;2022-12-08T03:47:17;100211.75;;;1.75;100.00
30421;BME280;17218;54.070;10.012;2022-12-08T03:49:43;100207.56;;;1.77;100.00
30421;BME280;17218;54.070;10.012;2022-12-08T03:52:10;100199.91;;;1.79;100.00
30421;BME280;17218;54.070;10.012;2022-12-08T03:54:36;100205.03;;;1.79;100.00
30421;BME280;17218;54.070;10.012;2022-12-08T03:57:04;100209.25;;;1.78;100.00
30421;BME280;17218;54.070;10.012;2022-12-08T03:59:31;100199.88;;;1.77;100.00
30421;BME280;17218;54.070;10.012;2022-12-08T04:01:58;100185.38;;;1.76;100.00
30421;BME280;17218;54.070;10.012;2022-12-08T04:04:24;100181.13;;;1.75;100.00
30421;BME280;17218;54.070;10.012;2022-12-08T04:06:51;100183.69;;;1.77;100.00
30421;BME280;17218;54.070;10.012;2022-12-08T04:09:18;100183.75;;;1.80;100.00
30421;BME280;17218;54.070;10.012;2022-12-08T04:11:44;100175.28;;;1.81;100.00
30421;BME280;17218;54.070;10.012;2022-12-08T04:14:12;100181.25;;;1.83;100.00
30421;BME280;17218;54.070;10.012;2022-12-08T04:16:39;100188.09;;;1.84;100.00
30421;BME280;17218;54.070;10.012;2022-12-08T04:19:06;100177.91;;;1.86;100.00
30421;BME280;17218;54.070;10.012;2022-12-08T04:21:32;100176.97;;;1.82;100.00
30421;BME280;17218;54.070;10.012;2022-12-08T04:23:59;100192.34;;;1.85;100.00
30421;BME280;17218;54.070;10.012;2022-12-08T04:26:26;100182.03;;;1.79;100.00
30421;BME280;17218;54.070;10.012;2022-12-08T04:28:53;100178.66;;;1.82;100.00
30421;BME280;17218;54.070;10.012;2022-12-08T04:31:21;100178.63;;;1.78;100.00
30421;BME280;17218;54.070;10.012;2022-12-08T04:33:48;100170.94;;;1.77;100.00
30421;BME280;17218;54.070;10.012;2022-12-08T04:36:14;100170.06;;;1.76;100.00
30421;BME280;17218;54.070;10.012;2022-12-08T04:38:41;100167.53;;;1.78;100.00
30421;BME280;17218;54.070;10.012;2022-12-08T04:41:07;100165.81;;;1.77;100.00
30421;BME280;17218;54.070;10.012;2022-12-08T04:43:34;100170.19;;;1.83;100.00
30421;BME280;17218;54.070;10.012;2022-12-08T04:46:01;100155.75;;;1.85;100.00
30421;BME280;17218;54.070;10.012;2022-12-08T04:48:32;100171.94;;;1.87;100.00
30421;BME280;17218;54.070;10.012;2022-12-08T04:50:59;100167.84;;;1.95;100.00
30421;BME280;17218;54.070;10.012;2022-12-08T04:53:25;100171.31;;;1.97;100.00
30421;BME280;17218;54.070;10.012;2022-12-08T04:55:52;100166.22;;;1.99;100.00
30421;BME280;17218;54.070;10.012;2022-12-08T04:58:19;100168.72;;;1.96;100.00
30421;BME280;17218;54.070;10.012;2022-12-08T05:00:47;100175.41;;;1.90;100.00
30421;BME280;17218;54.070;10.012;2022-12-08T05:03:14;100175.41;;;1.90;100.00
30421;BME280;17218;54.070;10.012;2022-12-08T05:05:42;100167.88;;;1.97;100.00
30421;BME280;17218;54.070;10.012;2022-12-08T05:08:10;100167.09;;;1.99;100.00
30421;BME280;17218;54.070;10.012;2022-12-08T05:10:37;100162.81;;;2.00;100.00
30421;BME280;17218;54.070;10.012;2022-12-08T05:13:03;100167.88;;;1.97;100.00
30421;BME280;17218;54.070;10.012;2022-12-08T05:15:30;100165.31;;;1.95;100.00
30421;BME280;17218;54.070;10.012;2022-12-08T05:17:57;100168.75;;;1.97;100.00
30421;BME280;17218;54.070;10.012;2022-12-08T05:20:24;100162.00;;;2.01;100.00
30421;BME280;17218;54.070;10.012;2022-12-08T05:22:52;100156.94;;;2.04;100.00
30421;BME280;17218;54.070;10.012;2022-12-08T05:25:18;100162.88;;;2.01;100.00
30421;BME280;17218;54.070;10.012;2022-12-08T05:27:45;100170.53;;;2.01;100.00
30421;BME280;17218;54.070;10.012;2022-12-08T05:30:12;100158.56;;;1.99;100.00
30421;BME280;17218;54.070;10.012;2022-12-08T05:32:39;100165.31;;;1.97;100.00
30421;BME280;17218;54.070;10.012;2022-12-08T05:35:06;100169.66;;;1.99;100.00
30421;BME280;17218;54.070;10.012;2022-12-08T05:37:32;100168.00;;;2.03;100.00
30421;BME280;17218;54.070;10.012;2022-12-08T05:40:01;100166.28;;;2.03;100.00
30421;BME280;17218;54.070;10.012;2022-12-08T05:42:27;100167.16;;;2.02;100.00
30421;BME280;17218;54.070;10.012;2022-12-08T05:44:54;100167.00;;;1.95;100.00
30421;BME280;17218;54.070;10.012;2022-12-08T05:47:20;100168.59;;;1.89;100.00
30421;BME280;17218;54.070;10.012;2022-12-08T05:49:47;100167.63;;;1.83;100.00
30421;BME280;17218;54.070;10.012;2022-12-08T05:52:14;100173.56;;;1.82;100.00
30421;BME280;17218;54.070;10.012;2022-12-08T05:54:41;100182.97;;;1.84;100.00
30421;BME280;17218;54.070;10.012;2022-12-08T05:57:09;100178.78;;;1.86;100.00
30421;BME280;17218;54.070;10.012;2022-12-08T05:59:35;100177.94;;;1.89;100.00
30421;BME280;17218;54.070;10.012;2022-12-08T06:02:02;100173.75;;;1.93;100.00
30421;BME280;17218;54.070;10.012;2022-12-08T06:04:29;100171.28;;;1.96;100.00
30421;BME280;17218;54.070;10.012;2022-12-08T06:06:55;100172.09;;;1.95;100.00
30421;BME280;17218;54.070;10.012;2022-12-08T06:09:22;100171.09;;;1.86;100.00
30421;BME280;17218;54.070;10.012;2022-12-08T06:11:48;100172.66;;;1.79;100.00
30421;BME280;17218;54.070;10.012;2022-12-08T06:14:16;100180.25;;;1.75;100.00
30421;BME280;17218;54.070;10.012;2022-12-08T06:16:43;100165.78;;;1.75;100.00
30421;BME280;17218;54.070;10.012;2022-12-08T06:19:10;100180.25;;;1.75;100.00
30421;BME280;17218;54.070;10.012;2022-12-08T06:21:36;100185.38;;;1.76;100.00
30421;BME280;17218;54.070;10.012;2022-12-08T06:24:03;100186.31;;;1.80;100.00
30421;BME280;17218;54.070;10.012;2022-12-08T06:26:30;100170.16;;;1.81;100.00
30421;BME280;17218;54.070;10.012;2022-12-08T06:28:56;100173.47;;;1.77;100.00
30421;BME280;17218;54.070;10.012;2022-12-08T06:31:26;100175.19;;;1.78;100.00
30421;BME280;17218;54.070;10.012;2022-12-08T06:33:53;100182.09;;;1.82;100.00
30421;BME280;17218;54.070;10.012;2022-12-08T06:36:21;100181.31;;;1.86;100.00
30421;BME280;17218;54.070;10.012;2022-12-08T06:38:49;100194.94;;;1.87;100.00
30421;BME280;17218;54.070;10.012;2022-12-08T06:41:16;100188.13;;;1.86;100.00
30421;BME280;17218;54.070;10.012;2022-12-08T06:43:43;100192.44;;;1.88;100.00
30421;BME280;17218;54.070;10.012;2022-12-08T06:46:12;100189.03;;;1.89;100.00
30421;BME280;17218;54.070;10.012;2022-12-08T06:48:41;100197.47;;;1.85;100.00
30421;BME280;17218;54.070;10.012;2022-12-08T06:51:09;100202.59;;;1.87;100.00
30421;BME280;17218;54.070;10.012;2022-12-08T06:53:37;100192.47;;;1.90;100.00
30421;BME280;17218;54.070;10.012;2022-12-08T06:56:05;100203.41;;;1.84;100.00
30421;BME280;17218;54.070;10.012;2022-12-08T06:58:32;100196.31;;;1.69;100.00
30421;BME280;17218;54.070;10.012;2022-12-08T07:01:03;100197.72;;;1.54;100.00
30421;BME280;17218;54.070;10.012;2022-12-08T07:03:30;100200.19;;;1.50;100.00
30421;BME280;17218;54.070;10.012;2022-12-08T07:05:58;100204.38;;;1.48;100.00
30421;BME280;17218;54.070;10.012;2022-12-08T07:08:25;100201.94;;;1.54;100.00
30421;BME280;17218;54.070;10.012;2022-12-08T07:10:51;100211.44;;;1.60;100.00
30421;BME280;17218;54.070;10.012;2022-12-08T07:13:18;100204.66;;;1.62;100.00
30421;BME280;17218;54.070;10.012;2022-12-08T07:15:45;100203.91;;;1.66;100.00
30421;BME280;17218;54.070;10.012;2022-12-08T07:18:11;100206.44;;;1.64;100.00
30421;BME280;17218;54.070;10.012;2022-12-08T07:20:38;100212.28;;;1.59;100.00
30421;BME280;17218;54.070;10.012;2022-12-08T07:23:06;100214.91;;;1.63;100.00
30421;BME280;17218;54.070;10.012;2022-12-08T07:25:32;100211.69;;;1.72;100.00
30421;BME280;17218;54.070;10.012;2022-12-08T07:27:59;100212.56;;;1.74;100.00
30421;BME280;17218;54.070;10.012;2022-12-08T07:30:25;100220.34;;;1.79;100.00
30421;BME280;17218;54.070;10.012;2022-12-08T07:32:52;100209.34;;;1.83;100.00
30421;BME280;17218;54.070;10.012;2022-12-08T07:35:19;100205.13;;;1.85;100.00
30421;BME280;17218;54.070;10.012;2022-12-08T07:37:45;100217.88;;;1.84;100.00
30421;BME280;17218;54.070;10.012;2022-12-08T07:40:14;100217.13;;;1.88;100.00
30421;BME280;17218;54.070;10.012;2022-12-08T07:42:41;100220.59;;;1.92;100.00
30421;BME280;17218;54.070;10.012;2022-12-08T07:45:08;100217.19;;;1.93;100.00
30421;BME280;17218;54.070;10.012;2022-12-08T07:47:35;100217.25;;;1.94;100.00
30421;BME280;17218;54.070;10.012;2022-12-08T07:50:01;100215.56;;;1.96;100.00
30421;BME280;17218;54.070;10.012;2022-12-08T07:52:28;100218.09;;;1.96;100.00
30421;BME280;17218;54.070;10.012;2022-12-08T07:54:55;100231.81;;;2.00;100.00
30421;BME280;17218;54.070;10.012;2022-12-08T07:57:23;100239.44;;;1.98;100.00
30421;BME280;17218;54.070;10.012;2022-12-08T07:59:49;100231.75;;;1.97;100.00
30421;BME280;17218;54.070;10.012;2022-12-08T08:02:17;100225.84;;;1.98;100.00
30421;BME280;17218;54.070;10.012;2022-12-08T08:04:43;100230.16;;;2.02;100.00
30421;BME280;17218;54.070;10.012;2022-12-08T08:07:10;100218.28;;;2.04;100.00
30421;BME280;17218;54.070;10.012;2022-12-08T08:09:37;100221.69;;;2.05;100.00
30421;BME280;17218;54.070;10.012;2022-12-08T08:12:04;100225.84;;;1.99;100.00
30421;BME280;17218;54.070;10.012;2022-12-08T08:14:32;100224.13;;;2.00;100.00
30421;BME280;17218;54.070;10.012;2022-12-08T08:16:59;100236.06;;;1.98;100.00
30421;BME280;17218;54.070;10.012;2022-12-08T08:19:25;100229.34;;;2.03;100.00
30421;BME280;17218;54.070;10.012;2022-12-08T08:21:52;100238.75;;;2.07;100.00
30421;BME280;17218;54.070;10.012;2022-12-08T08:24:19;100240.50;;;2.08;100.00
30421;BME280;17218;54.070;10.012;2022-12-08T08:26:46;100236.28;;;2.10;100.00
30421;BME280;17218;54.070;10.012;2022-12-08T08:29:13;100242.28;;;2.12;100.00
30421;BME280;17218;54.070;10.012;2022-12-08T08:31:41;100241.44;;;2.13;100.00
30421;BME280;17218;54.070;10.012;2022-12-08T08:34:07;100237.22;;;2.16;100.00
30421;BME280;17218;54.070;10.012;2022-12-08T08:36:34;100255.13;;;2.16;100.00
30421;BME280;17218;54.070;10.012;2022-12-08T08:39:01;100255.97;;;2.14;100.00
30421;BME280;17218;54.070;10.012;2022-12-08T08:41:27;100250.03;;;2.17;100.00
30421;BME280;17218;54.070;10.012;2022-12-08T08:43:54;100252.69;;;2.22;100.00
30421;BME280;17218;54.070;10.012;2022-12-08T08:46:21;100251.81;;;2.20;100.00
30421;BME280;17218;54.070;10.012;2022-12-08T08:48:49;100250.09;;;2.20;100.00
30421;BME280;17218;54.070;10.012;2022-12-08T08:51:15;100244.09;;;2.18;100.00
30421;BME280;17218;54.070;10.012;2022-12-08T08:53:42;100250.88;;;2.16;100.00
30421;BME280;17218;54.070;10.012;2022-12-08T08:56:09;100255.28;;;2.23;100.00
30421;BME280;17218;54.070;10.012;2022-12-08T08:58:36;100257.94;;;2.30;100.00
30421;BME280;17218;54.070;10.012;2022-12-08T09:01:03;100259.69;;;2.31;100.00
30421;BME280;17218;54.070;10.012;2022-12-08T09:03:29;100259.66;;;2.29;100.00
30421;BME280;17218;54.070;10.012;2022-12-08T09:05:58;100253.69;;;2.30;100.00
30421;BME280;17218;54.070;10.012;2022-12-08T09:08:24;100243.38;;;2.25;100.00
30421;BME280;17218;54.070;10.012;2022-12-08T09:10:51;100250.22;;;2.26;100.00
30421;BME280;17218;54.070;10.012;2022-12-08T09:13:18;100257.91;;;2.28;100.00
30421;BME280;17218;54.070;10.012;2022-12-08T09:15:44;100256.06;;;2.21;100.00
30421;BME280;17218;54.070;10.012;2022-12-08T09:18:11;100263.72;;;2.21;100.00
30421;BME280;17218;54.070;10.012;2022-12-08T09:20:37;100262.94;;;2.23;100.00
30421;BME280;17218;54.070;10.012;2022-12-08T09:23:06;100270.72;;;2.30;100.00
30421;BME280;17218;54.070;10.012;2022-12-08T09:25:32;100274.19;;;2.33;100.00
30421;BME280;17218;54.070;10.012;2022-12-08T09:27:59;100264.81;;;2.32;100.00
30421;BME280;17218;54.070;10.012;2022-12-08T09:30:25;100275.84;;;2.31;100.00
30421;BME280;17218;54.070;10.012;2022-12-08T09:32:52;100267.31;;;2.29;100.00
30421;BME280;17218;54.070;10.012;2022-12-08T09:35:19;100273.28;;;2.30;100.00
30421;BME280;17218;54.070;10.012;2022-12-08T09:37:45;100279.22;;;2.29;100.00
30421;BME280;17218;54.070;10.012;2022-12-08T09:40:16;100277.63;;;2.35;100.00
30421;BME280;17218;54.070;10.012;2022-12-08T09:42:48;100276.00;;;2.39;100.00
30421;BME280;17218;54.070;10.012;2022-12-08T09:45:17;100274.34;;;2.41;100.00
30421;BME280;17218;54.070;10.012;2022-12-08T09:47:47;100278.66;;;2.44;100.00
30421;BME280;17218;54.070;10.012;2022-12-08T09:50:28;100275.28;;;2.46;100.00
30421;BME280;17218;54.070;10.012;2022-12-08T09:52:59;100277.06;;;2.49;100.00
30421;BME280;17218;54.070;10.012;2022-12-08T09:55:37;100275.31;;;2.48;100.00
30421;BME280;17218;54.070;10.012;2022-12-08T09:58:14;100270.34;;;2.56;100.00
30421;BME280;17218;54.070;10.012;2022-12-08T10:00:43;100269.06;;;2.80;100.00
30421;BME280;17218;54.070;10.012;2022-12-08T10:03:10;100267.59;;;2.96;100.00
30421;BME280;17218;54.070;10.012;2022-12-08T10:05:41;100273.78;;;3.09;100.00
30421;BME280;17218;54.070;10.012;2022-12-08T10:08:17;100257.81;;;3.24;100.00
30421;BME280;17218;54.070;10.012;2022-12-08T10:10:55;100257.94;;;3.33;100.00
30421;BME280;17218;54.070;10.012;2022-12-08T10:13:30;100254.53;;;3.33;100.00
30421;BME280;17218;54.070;10.012;2022-12-08T10:16:10;100250.44;;;3.46;100.00
30421;BME280;17218;54.070;10.012;2022-12-08T10:18:38;100253.09;;;3.52;100.00
30421;BME280;17218;54.070;10.012;2022-12-08T10:21:13;100255.34;;;3.30;100.00
30421;BME280;17218;54.070;10.012;2022-12-08T10:23:44;100257.00;;;3.25;100.00
30421;BME280;17218;54.070;10.012;2022-12-08T10:26:14;100253.56;;;3.25;100.00
30421;BME280;17218;54.070;10.012;2022-12-08T10:28:41;100247.56;;;3.22;100.00
30421;BME280;17218;54.070;10.012;2022-12-08T10:31:14;100261.25;;;3.26;100.00
30421;BME280;17218;54.070;10.012;2022-12-08T10:33:41;100250.13;;;3.22;100.00
30421;BME280;17218;54.070;10.012;2022-12-08T10:36:09;100259.66;;;3.33;100.00
30421;BME280;17218;54.070;10.012;2022-12-08T10:38:38;100264.69;;;3.25;100.00
30421;BME280;17218;54.070;10.012;2022-12-08T10:41:10;100262.81;;;3.16;100.00
30421;BME280;17218;54.070;10.012;2022-12-08T10:43:43;100264.41;;;3.09;100.00
30421;BME280;17218;54.070;10.012;2022-12-08T10:46:13;100263.50;;;3.06;100.00
30421;BME280;17218;54.070;10.012;2022-12-08T10:48:48;100258.81;;;2.80;100.00
30421;BME280;17218;54.070;10.012;2022-12-08T10:51:26;100264.81;;;2.82;100.00
30421;BME280;17218;54.070;10.012;2022-12-08T10:53:55;100266.16;;;2.59;100.00
30421;BME280;17218;54.070;10.012;2022-12-08T10:56:24;100267.13;;;2.18;100.00
30421;BME280;17218;54.070;10.012;2022-12-08T10:59:06;100269.00;;;1.87;100.00
30421;BME280;17218;54.070;10.012;2022-12-08T11:01:38;100266.47;;;1.87;100.00
30421;BME280;17218;54.070;10.012;2022-12-08T11:04:12;100279.19;;;1.85;100.00
30421;BME280;17218;54.070;10.012;2022-12-08T11:06:39;100277.88;;;1.63;100.00
30421;BME280;17218;54.070;10.012;2022-12-08T11:09:22;100283.81;;;1.62;100.00
30421;BME280;17218;54.070;10.012;2022-12-08T11:11:51;100280.44;;;1.63;100.00
30421;BME280;17218;54.070;10.012;2022-12-08T11:14:22;100283.28;;;1.75;100.00
30421;BME280;17218;54.070;10.012;2022-12-08T11:16:51;100283.47;;;1.85;100.00
30421;BME280;17218;54.070;10.012;2022-12-08T11:19:19;100284.41;;;1.88;100.00
30421;BME280;17218;54.070;10.012;2022-12-08T11:21:46;100277.34;;;1.78;100.00
30421;BME280;17218;54.070;10.012;2022-12-08T11:24:21;100282.16;;;1.64;100.00
30421;BME280;17218;54.070;10.012;2022-12-08T11:26:52;100287.31;;;1.65;100.00
30421;BME280;17218;54.070;10.012;2022-12-08T11:29:21;100280.78;;;1.78;100.00
30421;BME280;17218;54.070;10.012;2022-12-08T11:31:51;100284.13;;;1.76;100.00
30421;BME280;17218;54.070;10.012;2022-12-08T11:34:28;100292.75;;;1.81;100.00
30421;BME280;17218;54.070;10.012;2022-12-08T11:36:57;100292.16;;;1.93;100.00
30421;BME280;17218;54.070;10.012;2022-12-08T11:39:25;100291.47;;;2.02;100.00
30421;BME280;17218;54.070;10.012;2022-12-08T11:41:55;100294.00;;;2.00;100.00
30421;BME280;17218;54.070;10.012;2022-12-08T11:44:30;100285.53;;;2.03;100.00
30421;BME280;17218;54.070;10.012;2022-12-08T11:47:04;100282.28;;;2.10;100.00
30421;BME280;17218;54.070;10.012;2022-12-08T11:49:35;100284.09;;;2.16;100.00
30421;BME280;17218;54.070;10.012;2022-12-08T11:52:06;100282.53;;;2.24;100.00
30421;BME280;17218;54.070;10.012;2022-12-08T11:54:41;100293.81;;;2.33;100.00
30421;BME280;17218;54.070;10.012;2022-12-08T11:57:12;100287.84;;;2.34;100.00
30421;BME280;17218;54.070;10.012;2022-12-08T11:59:43;100297.09;;;2.27;100.00
30421;BME280;17218;54.070;10.012;2022-12-08T12:02:13;100299.75;;;2.33;100.00
30421;BME280;17218;54.070;10.012;2022-12-08T12:04:43;100284.53;;;2.40;100.00
30421;BME280;17218;54.070;10.012;2022-12-08T12:07:35;100289.72;;;2.44;100.00
30421;BME280;17218;54.070;10.012;2022-12-08T12:10:38;100286.13;;;2.33;100.00
30421;BME280;17218;54.070;10.012;2022-12-08T12:13:21;100282.75;;;2.35;100.00
30421;BME280;17218;54.070;10.012;2022-12-08T12:16:13;100282.91;;;2.43;100.00
30421;BME280;17218;54.070;10.012;2022-12-08T12:18:49;100284.78;;;2.54;100.00
30421;BME280;17218;54.070;10.012;2022-12-08T12:21:20;100290.94;;;2.62;100.00
30421;BME280;17218;54.070;10.012;2022-12-08T12:23:52;100289.78;;;2.95;100.00
30421;BME280;17218;54.070;10.012;2022-12-08T12:26:22;100281.81;;;3.93;100.00
30421;BME280;17218;54.070;10.012;2022-12-08T12:28:52;100285.88;;;5.54;100.00
30421;BME280;17218;54.070;10.012;2022-12-08T12:31:24;100273.47;;;7.42;100.00
30421;BME280;17218;54.070;10.012;2022-12-08T12:33:54;100280.72;;;8.69;100.00
30421;BME280;17218;54.070;10.012;2022-12-08T12:36:22;100276.38;;;8.74;100.00
30421;BME280;17218;54.070;10.012;2022-12-08T12:38:51;100268.00;;;8.30;100.00
30421;BME280;17218;54.070;10.012;2022-12-08T12:41:36;100272.59;;;7.53;100.00
30421;BME280;17218;54.070;10.012;2022-12-08T12:44:38;100287.22;;;6.71;100.00
30421;BME280;17218;54.070;10.012;2022-12-08T12:47:10;100284.47;;;6.06;100.00
30421;BME280;17218;54.070;10.012;2022-12-08T12:49:52;100296.16;;;5.54;100.00
30421;BME280;17218;54.070;10.012;2022-12-08T12:52:38;100288.97;;;5.05;100.00
30421;BME280;17218;54.070;10.012;2022-12-08T12:58:38;100289.97;;;4.31;100.00
30421;BME280;17218;54.070;10.012;2022-12-08T13:04:30;100291.06;;;3.83;100.00
30421;BME280;17218;54.070;10.012;2022-12-08T13:06:58;100285.66;;;3.60;100.00